sensor_id;sensor_type;location;lat;lon;timestamp;P1;durP1;ratioP1;P2;durP2;ratioP2
22939;SDS011;11636;52.086;5.090;2022-12-18T00:02:32;55.03;;;25.40;;
22939;SDS011;11636;52.086;5.090;2022-12-18T00:04:59;47.95;;;23.55;;
22939;SDS011;11636;52.086;5.090;2022-12-18T00:07:34;58.95;;;27.15;;
22939;SDS011;11636;52.086;5.090;2022-12-18T00:10:02;45.10;;;22.23;;
22939;SDS011;11636;52.086;5.090;2022-12-18T00:12:29;52.47;;;25.42;;
22939;SDS011;11636;52.086;5.090;2022-12-18T00:15:03;56.50;;;25.92;;
22939;SDS011;11636;52.086;5.090;2022-12-18T00:17:37;50.13;;;24.23;;
22939;SDS011;11636;52.086;5.090;2022-12-18T00:20:10;49.40;;;24.95;;
22939;SDS011;11636;52.086;5.090;2022-12-18T00:22:37;53.22;;;25.42;;
22939;SDS011;11636;52.086;5.090;2022-12-18T00:25:10;43.92;;;22.75;;
22939;SDS011;11636;52.086;5.090;2022-12-18T00:27:40;43.92;;;22.00;;
22939;SDS011;11636;52.086;5.090;2022-12-18T00:30:14;55.20;;;27.80;;
22939;SDS011;11636;52.086;5.090;2022-12-18T00:32:41;51.65;;;25.80;;
22939;SDS011;11636;52.086;5.090;2022-12-18T00:35:08;47.40;;;24.45;;
22939;SDS011;11636;52.086;5.090;2022-12-18T00:37:41;42.65;;;22.10;;
22939;SDS011;11636;52.086;5.090;2022-12-18T00:40:14;44.17;;;22.08;;
22939;SDS011;11636;52.086;5.090;2022-12-18T00:42:43;53.63;;;26.17;;
22939;SDS011;11636;52.086;5.090;2022-12-18T00:45:30;50.88;;;25.77;;
22939;SDS011;11636;52.086;5.090;2022-12-18T00:48:05;50.20;;;25.50;;
22939;SDS011;11636;52.086;5.090;2022-12-18T00:50:32;48.85;;;24.40;;
22939;SDS011;11636;52.086;5.090;2022-12-18T00:53:06;54.55;;;26.52;;
22939;SDS011;11636;52.086;5.090;2022-12-18T00:55:37;55.47;;;27.20;;
22939;SDS011;11636;52.086;5.090;2022-12-18T00:58:05;54.63;;;27.55;;
22939;SDS011;11636;52.086;5.090;2022-12-18T01:00:39;50.03;;;24.23;;
22939;SDS011;11636;52.086;5.090;2022-12-18T01:03:06;45.80;;;23.67;;
22939;SDS011;11636;52.086;5.090;2022-12-18T01:05:33;43.13;;;22.35;;
22939;SDS011;11636;52.086;5.090;2022-12-18T01:08:06;45.10;;;22.50;;
22939;SDS011;11636;52.086;5.090;2022-12-18T01:10:33;50.35;;;25.35;;
22939;SDS011;11636;52.086;5.090;2022-12-18T01:13:00;52.60;;;26.00;;
22939;SDS011;11636;52.086;5.090;2022-12-18T01:15:33;44.90;;;22.30;;
22939;SDS011;11636;52.086;5.090;2022-12-18T01:18:09;39.90;;;21.50;;
22939;SDS011;11636;52.086;5.090;2022-12-18T01:20:35;53.92;;;26.30;;
22939;SDS011;11636;52.086;5.090;2022-12-18T01:23:11;58.53;;;27.77;;
22939;SDS011;11636;52.086;5.090;2022-12-18T01:25:38;45.10;;;22.95;;
22939;SDS011;11636;52.086;5.090;2022-12-18T01:28:05;54.85;;;25.48;;
22939;SDS011;11636;52.086;5.090;2022-12-18T01:30:38;43.97;;;22.65;;
22939;SDS011;11636;52.086;5.090;2022-12-18T01:33:11;54.88;;;27.77;;
22939;SDS011;11636;52.086;5.090;2022-12-18T01:35:41;57.35;;;27.77;;
22939;SDS011;11636;52.086;5.090;2022-12-18T01:38:09;52.63;;;26.42;;
22939;SDS011;11636;52.086;5.090;2022-12-18T01:40:42;50.95;;;25.58;;
22939;SDS011;11636;52.086;5.090;2022-12-18T01:43:17;48.67;;;24.13;;
22939;SDS011;11636;52.086;5.090;2022-12-18T01:45:43;60.67;;;28.23;;
22939;SDS011;11636;52.086;5.090;2022-12-18T01:48:10;58.80;;;27.52;;
22939;SDS011;11636;52.086;5.090;2022-12-18T01:50:44;50.92;;;25.23;;
22939;SDS011;11636;52.086;5.090;2022-12-18T01:53:13;53.45;;;26.38;;
22939;SDS011;11636;52.086;5.090;2022-12-18T01:55:49;52.63;;;25.42;;
22939;SDS011;11636;52.086;5.090;2022-12-18T01:58:30;49.67;;;24.30;;
22939;SDS011;11636;52.086;5.090;2022-12-18T02:01:12;45.78;;;22.92;;
22939;SDS011;11636;52.086;5.090;2022-12-18T02:03:42;50.97;;;23.90;;
22939;SDS011;11636;52.086;5.090;2022-12-18T02:06:13;51.63;;;26.67;;
22939;SDS011;11636;52.086;5.090;2022-12-18T02:09:18;43.35;;;21.15;;
22939;SDS011;11636;52.086;5.090;2022-12-18T02:12:13;44.60;;;21.80;;
22939;SDS011;11636;52.086;5.090;2022-12-18T02:17:22;44.13;;;21.60;;
22939;SDS011;11636;52.086;5.090;2022-12-18T02:20:13;49.50;;;25.25;;
22939;SDS011;11636;52.086;5.090;2022-12-18T02:22:49;50.53;;;24.42;;
22939;SDS011;11636;52.086;5.090;2022-12-18T02:28:36;49.28;;;23.52;;
22939;SDS011;11636;52.086;5.090;2022-12-18T02:31:17;45.42;;;22.92;;
22939;SDS011;11636;52.086;5.090;2022-12-18T02:33:47;42.78;;;21.23;;
22939;SDS011;11636;52.086;5.090;2022-12-18T02:36:30;43.72;;;22.45;;
22939;SDS011;11636;52.086;5.090;2022-12-18T02:39:00;42.40;;;22.15;;
22939;SDS011;11636;52.086;5.090;2022-12-18T02:41:35;41.70;;;20.95;;
22939;SDS011;11636;52.086;5.090;2022-12-18T02:44:07;50.90;;;23.67;;
22939;SDS011;11636;52.086;5.090;2022-12-18T02:46:45;43.05;;;20.98;;
22939;SDS011;11636;52.086;5.090;2022-12-18T03:00:39;48.78;;;22.65;;
22939;SDS011;11636;52.086;5.090;2022-12-18T03:03:29;34.72;;;18.92;;
22939;SDS011;11636;52.086;5.090;2022-12-18T03:06:07;44.42;;;21.52;;
22939;SDS011;11636;52.086;5.090;2022-12-18T03:08:46;53.03;;;25.00;;
22939;SDS011;11636;52.086;5.090;2022-12-18T03:11:17;47.17;;;22.55;;
22939;SDS011;11636;52.086;5.090;2022-12-18T03:14:10;52.35;;;23.95;;
22939;SDS011;11636;52.086;5.090;2022-12-18T03:16:41;48.00;;;21.92;;
22939;SDS011;11636;52.086;5.090;2022-12-18T03:19:18;49.08;;;23.52;;
22939;SDS011;11636;52.086;5.090;2022-12-18T03:21:51;50.58;;;24.75;;
22939;SDS011;11636;52.086;5.090;2022-12-18T03:24:28;51.35;;;24.05;;
22939;SDS011;11636;52.086;5.090;2022-12-18T03:27:00;47.92;;;24.05;;
22939;SDS011;11636;52.086;5.090;2022-12-18T03:29:42;47.30;;;22.98;;
22939;SDS011;11636;52.086;5.090;2022-12-18T03:32:26;44.53;;;21.48;;
22939;SDS011;11636;52.086;5.090;2022-12-18T03:35:03;47.22;;;23.95;;
22939;SDS011;11636;52.086;5.090;2022-12-18T03:37:33;46.25;;;23.02;;
22939;SDS011;11636;52.086;5.090;2022-12-18T03:40:05;45.47;;;23.50;;
22939;SDS011;11636;52.086;5.090;2022-12-18T03:50:48;44.40;;;22.30;;
22939;SDS011;11636;52.086;5.090;2022-12-18T03:53:45;46.72;;;23.45;;
22939;SDS011;11636;52.086;5.090;2022-12-18T03:56:25;51.53;;;24.38;;
22939;SDS011;11636;52.086;5.090;2022-12-18T03:58:55;42.97;;;22.40;;
22939;SDS011;11636;52.086;5.090;2022-12-18T04:01:31;47.97;;;23.90;;
22939;SDS011;11636;52.086;5.090;2022-12-18T04:04:04;41.65;;;21.48;;
22939;SDS011;11636;52.086;5.090;2022-12-18T04:06:39;39.95;;;22.27;;
22939;SDS011;11636;52.086;5.090;2022-12-18T04:09:07;51.35;;;25.35;;
22939;SDS011;11636;52.086;5.090;2022-12-18T04:11:35;46.72;;;23.92;;
22939;SDS011;11636;52.086;5.090;2022-12-18T04:14:08;41.67;;;21.70;;
22939;SDS011;11636;52.086;5.090;2022-12-18T04:16:42;43.25;;;22.48;;
22939;SDS011;11636;52.086;5.090;2022-12-18T04:19:16;42.63;;;22.30;;
22939;SDS011;11636;52.086;5.090;2022-12-18T04:21:43;45.17;;;23.70;;
22939;SDS011;11636;52.086;5.090;2022-12-18T04:24:24;48.38;;;24.08;;
22939;SDS011;11636;52.086;5.090;2022-12-18T04:27:04;43.47;;;23.23;;
22939;SDS011;11636;52.086;5.090;2022-12-18T04:29:38;41.17;;;22.25;;
22939;SDS011;11636;52.086;5.090;2022-12-18T04:32:11;43.88;;;23.90;;
22939;SDS011;11636;52.086;5.090;2022-12-18T04:34:44;47.85;;;26.40;;
22939;SDS011;11636;52.086;5.090;2022-12-18T04:37:11;51.08;;;25.75;;
22939;SDS011;11636;52.086;5.090;2022-12-18T04:39:44;46.72;;;25.63;;
22939;SDS011;11636;52.086;5.090;2022-12-18T04:42:11;49.95;;;26.50;;
22939;SDS011;11636;52.086;5.090;2022-12-18T04:44:44;46.05;;;24.15;;
22939;SDS011;11636;52.086;5.090;2022-12-18T04:47:11;46.85;;;25.02;;
22939;SDS011;11636;52.086;5.090;2022-12-18T04:49:44;42.53;;;23.02;;
22939;SDS011;11636;52.086;5.090;2022-12-18T04:52:11;42.75;;;23.85;;
22939;SDS011;11636;52.086;5.090;2022-12-18T04:54:44;47.08;;;26.30;;
22939;SDS011;11636;52.086;5.090;2022-12-18T04:57:12;44.17;;;24.23;;
22939;SDS011;11636;52.086;5.090;2022-12-18T04:59:39;39.88;;;22.00;;
22939;SDS011;11636;52.086;5.090;2022-12-18T05:02:12;42.10;;;23.23;;
22939;SDS011;11636;52.086;5.090;2022-12-18T05:04:47;44.67;;;24.08;;
22939;SDS011;11636;52.086;5.090;2022-12-18T05:07:14;45.22;;;23.50;;
22939;SDS011;11636;52.086;5.090;2022-12-18T05:09:42;42.72;;;22.50;;
22939;SDS011;11636;52.086;5.090;2022-12-18T05:12:16;41.28;;;22.58;;
22939;SDS011;11636;52.086;5.090;2022-12-18T05:14:43;42.13;;;23.27;;
22939;SDS011;11636;52.086;5.090;2022-12-18T05:17:16;41.53;;;21.42;;
22939;SDS011;11636;52.086;5.090;2022-12-18T05:19:43;39.33;;;21.50;;
22939;SDS011;11636;52.086;5.090;2022-12-18T05:22:10;41.97;;;21.95;;
22939;SDS011;11636;52.086;5.090;2022-12-18T05:24:44;39.42;;;20.77;;
22939;SDS011;11636;52.086;5.090;2022-12-18T05:27:11;41.70;;;23.20;;
22939;SDS011;11636;52.086;5.090;2022-12-18T05:29:44;37.47;;;20.23;;
22939;SDS011;11636;52.086;5.090;2022-12-18T05:32:11;39.75;;;20.42;;
22939;SDS011;11636;52.086;5.090;2022-12-18T05:34:44;37.97;;;21.17;;
22939;SDS011;11636;52.086;5.090;2022-12-18T05:37:17;33.08;;;19.15;;
22939;SDS011;11636;52.086;5.090;2022-12-18T05:39:44;33.42;;;18.25;;
22939;SDS011;11636;52.086;5.090;2022-12-18T05:42:17;30.73;;;17.58;;
22939;SDS011;11636;52.086;5.090;2022-12-18T05:44:50;34.53;;;17.95;;
22939;SDS011;11636;52.086;5.090;2022-12-18T05:47:22;32.67;;;17.58;;
22939;SDS011;11636;52.086;5.090;2022-12-18T05:49:55;33.40;;;18.63;;
22939;SDS011;11636;52.086;5.090;2022-12-18T05:52:22;32.08;;;17.45;;
22939;SDS011;11636;52.086;5.090;2022-12-18T05:54:56;29.25;;;17.73;;
22939;SDS011;11636;52.086;5.090;2022-12-18T05:57:26;37.75;;;20.05;;
22939;SDS011;11636;52.086;5.090;2022-12-18T05:59:53;31.77;;;17.90;;
22939;SDS011;11636;52.086;5.090;2022-12-18T06:02:26;29.73;;;16.70;;
22939;SDS011;11636;52.086;5.090;2022-12-18T06:04:53;33.13;;;17.17;;
22939;SDS011;11636;52.086;5.090;2022-12-18T06:07:20;30.92;;;16.98;;
22939;SDS011;11636;52.086;5.090;2022-12-18T06:09:59;29.02;;;15.65;;
22939;SDS011;11636;52.086;5.090;2022-12-18T06:12:35;30.45;;;17.33;;
22939;SDS011;11636;52.086;5.090;2022-12-18T06:15:02;28.67;;;15.80;;
22939;SDS011;11636;52.086;5.090;2022-12-18T06:17:33;29.40;;;16.23;;
22939;SDS011;11636;52.086;5.090;2022-12-18T06:20:07;24.15;;;14.15;;
22939;SDS011;11636;52.086;5.090;2022-12-18T06:22:45;26.52;;;15.43;;
22939;SDS011;11636;52.086;5.090;2022-12-18T06:25:12;26.67;;;15.43;;
22939;SDS011;11636;52.086;5.090;2022-12-18T06:27:43;24.65;;;13.73;;
22939;SDS011;11636;52.086;5.090;2022-12-18T06:30:17;28.23;;;15.25;;
22939;SDS011;11636;52.086;5.090;2022-12-18T06:32:44;23.23;;;13.60;;
22939;SDS011;11636;52.086;5.090;2022-12-18T06:35:22;30.00;;;16.13;;
22939;SDS011;11636;52.086;5.090;2022-12-18T06:37:57;22.85;;;12.93;;
22939;SDS011;11636;52.086;5.090;2022-12-18T06:40:24;23.55;;;12.95;;
22939;SDS011;11636;52.086;5.090;2022-12-18T06:42:53;26.55;;;14.98;;
22939;SDS011;11636;52.086;5.090;2022-12-18T06:45:26;22.50;;;13.45;;
22939;SDS011;11636;52.086;5.090;2022-12-18T06:47:53;25.20;;;13.80;;
22939;SDS011;11636;52.086;5.090;2022-12-18T06:50:20;25.50;;;14.38;;
22939;SDS011;11636;52.086;5.090;2022-12-18T06:52:53;23.63;;;12.68;;
22939;SDS011;11636;52.086;5.090;2022-12-18T06:55:27;25.38;;;15.00;;
22939;SDS011;11636;52.086;5.090;2022-12-18T06:57:56;25.52;;;13.80;;
22939;SDS011;11636;52.086;5.090;2022-12-18T07:00:29;23.38;;;13.48;;
22939;SDS011;11636;52.086;5.090;2022-12-18T07:03:21;24.55;;;13.70;;
22939;SDS011;11636;52.086;5.090;2022-12-18T07:05:48;25.63;;;14.85;;
22939;SDS011;11636;52.086;5.090;2022-12-18T07:08:21;24.40;;;13.15;;
22939;SDS011;11636;52.086;5.090;2022-12-18T07:10:49;20.80;;;13.18;;
22939;SDS011;11636;52.086;5.090;2022-12-18T07:13:21;22.83;;;13.15;;
22939;SDS011;11636;52.086;5.090;2022-12-18T07:15:54;21.33;;;12.63;;
22939;SDS011;11636;52.086;5.090;2022-12-18T07:18:21;22.65;;;13.02;;
22939;SDS011;11636;52.086;5.090;2022-12-18T07:20:55;24.85;;;14.07;;
22939;SDS011;11636;52.086;5.090;2022-12-18T07:23:22;24.10;;;13.88;;
22939;SDS011;11636;52.086;5.090;2022-12-18T07:25:59;24.10;;;14.68;;
22939;SDS011;11636;52.086;5.090;2022-12-18T07:28:28;25.38;;;13.90;;
22939;SDS011;11636;52.086;5.090;2022-12-18T07:30:55;23.48;;;13.75;;
22939;SDS011;11636;52.086;5.090;2022-12-18T07:33:28;25.10;;;13.88;;
22939;SDS011;11636;52.086;5.090;2022-12-18T07:35:56;24.70;;;14.10;;
22939;SDS011;11636;52.086;5.090;2022-12-18T07:38:30;23.30;;;12.00;;
22939;SDS011;11636;52.086;5.090;2022-12-18T07:41:05;24.88;;;13.93;;
22939;SDS011;11636;52.086;5.090;2022-12-18T07:43:41;21.70;;;12.43;;
22939;SDS011;11636;52.086;5.090;2022-12-18T07:46:15;20.25;;;11.85;;
22939;SDS011;11636;52.086;5.090;2022-12-18T07:48:48;20.60;;;12.27;;
22939;SDS011;11636;52.086;5.090;2022-12-18T07:51:16;22.67;;;13.63;;
22939;SDS011;11636;52.086;5.090;2022-12-18T07:53:50;23.48;;;13.80;;
22939;SDS011;11636;52.086;5.090;2022-12-18T07:56:18;24.38;;;13.85;;
22939;SDS011;11636;52.086;5.090;2022-12-18T07:58:54;21.45;;;12.57;;
22939;SDS011;11636;52.086;5.090;2022-12-18T08:01:28;22.60;;;12.48;;
22939;SDS011;11636;52.086;5.090;2022-12-18T08:04:02;22.33;;;12.27;;
22939;SDS011;11636;52.086;5.090;2022-12-18T08:06:36;23.38;;;12.75;;
22939;SDS011;11636;52.086;5.090;2022-12-18T08:09:03;28.73;;;16.35;;
22939;SDS011;11636;52.086;5.090;2022-12-18T08:11:36;23.63;;;13.63;;
22939;SDS011;11636;52.086;5.090;2022-12-18T08:14:03;24.60;;;14.50;;
22939;SDS011;11636;52.086;5.090;2022-12-18T08:16:36;23.80;;;13.88;;
22939;SDS011;11636;52.086;5.090;2022-12-18T08:19:03;23.92;;;13.68;;
22939;SDS011;11636;52.086;5.090;2022-12-18T08:21:36;24.05;;;13.48;;
22939;SDS011;11636;52.086;5.090;2022-12-18T08:24:04;24.65;;;13.75;;
22939;SDS011;11636;52.086;5.090;2022-12-18T08:26:31;22.98;;;13.07;;
22939;SDS011;11636;52.086;5.090;2022-12-18T08:29:04;24.10;;;14.38;;
22939;SDS011;11636;52.086;5.090;2022-12-18T08:31:35;24.38;;;13.80;;
22939;SDS011;11636;52.086;5.090;2022-12-18T08:34:10;21.65;;;12.98;;
22939;SDS011;11636;52.086;5.090;2022-12-18T08:36:37;24.48;;;14.32;;
22939;SDS011;11636;52.086;5.090;2022-12-18T08:39:04;23.15;;;14.13;;
22939;SDS011;11636;52.086;5.090;2022-12-18T08:41:37;22.45;;;13.52;;
22939;SDS011;11636;52.086;5.090;2022-12-18T08:44:10;24.63;;;14.45;;
22939;SDS011;11636;52.086;5.090;2022-12-18T08:47:21;25.95;;;15.40;;
22939;SDS011;11636;52.086;5.090;2022-12-18T08:49:48;22.80;;;13.05;;
22939;SDS011;11636;52.086;5.090;2022-12-18T08:52:22;23.25;;;13.88;;
22939;SDS011;11636;52.086;5.090;2022-12-18T08:54:50;23.02;;;14.07;;
22939;SDS011;11636;52.086;5.090;2022-12-18T08:57:27;20.98;;;13.10;;
22939;SDS011;11636;52.086;5.090;2022-12-18T08:59:55;20.58;;;12.70;;
22939;SDS011;11636;52.086;5.090;2022-12-18T09:02:26;22.02;;;12.70;;
22939;SDS011;11636;52.086;5.090;2022-12-18T09:05:00;22.33;;;13.88;;
22939;SDS011;11636;52.086;5.090;2022-12-18T09:07:32;20.48;;;12.70;;
22939;SDS011;11636;52.086;5.090;2022-12-18T09:09:59;23.05;;;13.80;;
22939;SDS011;11636;52.086;5.090;2022-12-18T09:12:33;25.95;;;15.43;;
22939;SDS011;11636;52.086;5.090;2022-12-18T09:15:07;24.20;;;14.85;;
22939;SDS011;11636;52.086;5.090;2022-12-18T09:17:34;24.40;;;14.40;;
22939;SDS011;11636;52.086;5.090;2022-12-18T09:20:01;23.33;;;14.02;;
22939;SDS011;11636;52.086;5.090;2022-12-18T09:22:34;20.30;;;13.10;;
22939;SDS011;11636;52.086;5.090;2022-12-18T09:25:00;23.33;;;14.05;;
22939;SDS011;11636;52.086;5.090;2022-12-18T09:27:34;21.48;;;13.05;;
22939;SDS011;11636;52.086;5.090;2022-12-18T09:30:02;21.48;;;13.20;;
22939;SDS011;11636;52.086;5.090;2022-12-18T09:32:36;20.77;;;12.27;;
22939;SDS011;11636;52.086;5.090;2022-12-18T09:35:03;18.42;;;12.13;;
22939;SDS011;11636;52.086;5.090;2022-12-18T09:37:39;20.27;;;12.95;;
22939;SDS011;11636;52.086;5.090;2022-12-18T09:40:19;21.40;;;13.48;;
22939;SDS011;11636;52.086;5.090;2022-12-18T09:42:56;21.40;;;12.95;;
22939;SDS011;11636;52.086;5.090;2022-12-18T09:45:27;24.50;;;14.95;;
22939;SDS011;11636;52.086;5.090;2022-12-18T09:48:01;24.45;;;14.77;;
22939;SDS011;11636;52.086;5.090;2022-12-18T09:50:31;20.48;;;13.10;;
22939;SDS011;11636;52.086;5.090;2022-12-18T09:53:12;21.92;;;13.65;;
22939;SDS011;11636;52.086;5.090;2022-12-18T09:55:45;19.85;;;12.55;;
22939;SDS011;11636;52.086;5.090;2022-12-18T10:01:15;21.23;;;13.20;;
22939;SDS011;11636;52.086;5.090;2022-12-18T10:04:04;17.83;;;10.85;;
22939;SDS011;11636;52.086;5.090;2022-12-18T10:06:39;21.08;;;12.40;;
22939;SDS011;11636;52.086;5.090;2022-12-18T10:12:05;18.08;;;11.38;;
22939;SDS011;11636;52.086;5.090;2022-12-18T10:20:52;21.58;;;12.90;;
22939;SDS011;11636;52.086;5.090;2022-12-18T10:26:11;21.48;;;12.85;;
22939;SDS011;11636;52.086;5.090;2022-12-18T10:28:46;19.10;;;12.00;;
22939;SDS011;11636;52.086;5.090;2022-12-18T10:31:15;21.50;;;13.50;;
22939;SDS011;11636;52.086;5.090;2022-12-18T10:33:44;24.27;;;14.43;;
22939;SDS011;11636;52.086;5.090;2022-12-18T10:36:19;22.63;;;13.18;;
22939;SDS011;11636;52.086;5.090;2022-12-18T10:38:53;21.33;;;13.57;;
22939;SDS011;11636;52.086;5.090;2022-12-18T10:41:26;24.45;;;14.20;;
22939;SDS011;11636;52.086;5.090;2022-12-18T10:47:05;21.48;;;12.23;;
22939;SDS011;11636;52.086;5.090;2022-12-18T10:49:37;19.75;;;12.43;;
22939;SDS011;11636;52.086;5.090;2022-12-18T10:52:28;19.67;;;12.75;;
22939;SDS011;11636;52.086;5.090;2022-12-18T10:55:03;20.00;;;12.43;;
22939;SDS011;11636;52.086;5.090;2022-12-18T10:57:38;18.67;;;11.38;;
22939;SDS011;11636;52.086;5.090;2022-12-18T11:03:10;17.75;;;11.52;;
22939;SDS011;11636;52.086;5.090;2022-12-18T11:06:27;17.23;;;10.07;;
22939;SDS011;11636;52.086;5.090;2022-12-18T11:08:58;21.08;;;11.73;;
22939;SDS011;11636;52.086;5.090;2022-12-18T11:11:40;20.02;;;12.13;;
22939;SDS011;11636;52.086;5.090;2022-12-18T11:14:18;22.38;;;13.68;;
22939;SDS011;11636;52.086;5.090;2022-12-18T11:16:52;21.55;;;13.50;;
22939;SDS011;11636;52.086;5.090;2022-12-18T11:19:56;21.27;;;13.10;;
22939;SDS011;11636;52.086;5.090;2022-12-18T11:22:31;19.48;;;12.07;;
22939;SDS011;11636;52.086;5.090;2022-12-18T11:28:01;20.00;;;12.32;;
22939;SDS011;11636;52.086;5.090;2022-12-18T11:30:36;20.55;;;12.75;;
22939;SDS011;11636;52.086;5.090;2022-12-18T11:33:16;19.33;;;12.02;;
22939;SDS011;11636;52.086;5.090;2022-12-18T11:35:58;21.60;;;12.63;;
22939;SDS011;11636;52.086;5.090;2022-12-18T11:38:31;20.60;;;13.10;;
22939;SDS011;11636;52.086;5.090;2022-12-18T11:44:27;22.10;;;13.40;;
22939;SDS011;11636;52.086;5.090;2022-12-18T11:47:03;22.42;;;13.70;;
22939;SDS011;11636;52.086;5.090;2022-12-18T11:49:47;19.45;;;11.73;;
22939;SDS011;11636;52.086;5.090;2022-12-18T11:52:18;17.90;;;11.73;;
22939;SDS011;11636;52.086;5.090;2022-12-18T11:54:55;19.02;;;11.93;;
22939;SDS011;11636;52.086;5.090;2022-12-18T11:57:36;17.02;;;10.52;;
22939;SDS011;11636;52.086;5.090;2022-12-18T12:00:31;17.55;;;11.57;;
22939;SDS011;11636;52.086;5.090;2022-12-18T12:03:18;17.75;;;10.82;;
22939;SDS011;11636;52.086;5.090;2022-12-18T12:11:16;21.13;;;13.60;;
22939;SDS011;11636;52.086;5.090;2022-12-18T12:27:38;21.00;;;13.05;;
22939;SDS011;11636;52.086;5.090;2022-12-18T12:30:21;19.45;;;12.20;;
22939;SDS011;11636;52.086;5.090;2022-12-18T12:38:42;18.73;;;11.48;;
22939;SDS011;11636;52.086;5.090;2022-12-18T12:41:23;19.52;;;12.90;;
22939;SDS011;11636;52.086;5.090;2022-12-18T12:44:16;23.52;;;15.10;;
22939;SDS011;11636;52.086;5.090;2022-12-18T12:46:59;23.80;;;14.18;;
22939;SDS011;11636;52.086;5.090;2022-12-18T12:49:33;23.23;;;14.32;;
22939;SDS011;11636;52.086;5.090;2022-12-18T12:52:15;19.20;;;12.48;;
22939;SDS011;11636;52.086;5.090;2022-12-18T12:54:55;21.33;;;13.70;;
22939;SDS011;11636;52.086;5.090;2022-12-18T12:57:37;20.42;;;12.65;;
22939;SDS011;11636;52.086;5.090;2022-12-18T13:00:16;18.65;;;11.82;;
22939;SDS011;11636;52.086;5.090;2022-12-18T13:02:59;18.42;;;11.50;;
22939;SDS011;11636;52.086;5.090;2022-12-18T13:05:38;18.25;;;11.93;;
22939;SDS011;11636;52.086;5.090;2022-12-18T13:08:23;18.27;;;11.18;;
22939;SDS011;11636;52.086;5.090;2022-12-18T13:10:53;20.40;;;11.60;;
22939;SDS011;11636;52.086;5.090;2022-12-18T13:13:50;19.65;;;12.68;;
22939;SDS011;11636;52.086;5.090;2022-12-18T13:16:20;19.15;;;11.57;;
22939;SDS011;11636;52.086;5.090;2022-12-18T13:18:57;18.70;;;11.90;;
22939;SDS011;11636;52.086;5.090;2022-12-18T13:21:26;18.10;;;11.23;;
22939;SDS011;11636;52.086;5.090;2022-12-18T13:23:55;21.63;;;13.63;;
22939;SDS011;11636;52.086;5.090;2022-12-18T13:26:30;20.05;;;13.00;;
22939;SDS011;11636;52.086;5.090;2022-12-18T13:29:08;20.15;;;13.45;;
22939;SDS011;11636;52.086;5.090;2022-12-18T13:36:54;19.58;;;11.40;;
22939;SDS011;11636;52.086;5.090;2022-12-18T13:39:31;20.85;;;12.75;;
22939;SDS011;11636;52.086;5.090;2022-12-18T13:44:38;20.63;;;13.50;;
22939;SDS011;11636;52.086;5.090;2022-12-18T13:47:33;19.60;;;12.25;;
22939;SDS011;11636;52.086;5.090;2022-12-18T13:50:20;23.25;;;13.75;;
22939;SDS011;11636;52.086;5.090;2022-12-18T13:52:50;19.45;;;11.98;;
22939;SDS011;11636;52.086;5.090;2022-12-18T13:55:24;22.38;;;13.65;;
22939;SDS011;11636;52.086;5.090;2022-12-18T13:58:02;20.17;;;12.68;;
22939;SDS011;11636;52.086;5.090;2022-12-18T14:00:36;19.70;;;12.90;;
22939;SDS011;11636;52.086;5.090;2022-12-18T14:03:17;20.77;;;12.85;;
22939;SDS011;11636;52.086;5.090;2022-12-18T14:05:58;25.08;;;14.25;;
22939;SDS011;11636;52.086;5.090;2022-12-18T14:08:37;24.85;;;15.10;;
22939;SDS011;11636;52.086;5.090;2022-12-18T14:11:07;21.88;;;13.82;;
22939;SDS011;11636;52.086;5.090;2022-12-18T14:13:53;23.58;;;13.48;;
22939;SDS011;11636;52.086;5.090;2022-12-18T14:16:20;21.60;;;13.32;;
22939;SDS011;11636;52.086;5.090;2022-12-18T14:18:54;21.48;;;13.80;;
22939;SDS011;11636;52.086;5.090;2022-12-18T14:21:45;19.85;;;12.40;;
22939;SDS011;11636;52.086;5.090;2022-12-18T14:24:26;18.88;;;11.30;;
22939;SDS011;11636;52.086;5.090;2022-12-18T14:26:54;23.58;;;13.23;;
22939;SDS011;11636;52.086;5.090;2022-12-18T14:29:44;24.00;;;15.43;;
22939;SDS011;11636;52.086;5.090;2022-12-18T14:32:19;22.17;;;13.70;;
22939;SDS011;11636;52.086;5.090;2022-12-18T14:34:53;22.83;;;14.02;;
22939;SDS011;11636;52.086;5.090;2022-12-18T14:37:25;22.60;;;14.45;;
22939;SDS011;11636;52.086;5.090;2022-12-18T14:40:01;24.48;;;14.50;;
22939;SDS011;11636;52.086;5.090;2022-12-18T14:42:40;21.83;;;14.25;;
22939;SDS011;11636;52.086;5.090;2022-12-18T14:45:32;18.83;;;11.98;;
22939;SDS011;11636;52.086;5.090;2022-12-18T14:48:11;19.90;;;12.98;;
22939;SDS011;11636;52.086;5.090;2022-12-18T14:50:56;24.08;;;14.65;;
22939;SDS011;11636;52.086;5.090;2022-12-18T14:58:54;27.15;;;16.02;;
22939;SDS011;11636;52.086;5.090;2022-12-18T15:01:27;22.63;;;14.38;;
22939;SDS011;11636;52.086;5.090;2022-12-18T15:04:04;27.38;;;16.33;;
22939;SDS011;11636;52.086;5.090;2022-12-18T15:07:04;28.63;;;16.50;;
22939;SDS011;11636;52.086;5.090;2022-12-18T15:09:43;25.98;;;15.25;;
22939;SDS011;11636;52.086;5.090;2022-12-18T15:21:07;27.50;;;17.60;;
22939;SDS011;11636;52.086;5.090;2022-12-18T15:26:23;27.10;;;16.10;;
22939;SDS011;11636;52.086;5.090;2022-12-18T15:28:56;27.10;;;15.88;;
22939;SDS011;11636;52.086;5.090;2022-12-18T15:31:39;25.98;;;15.57;;
22939;SDS011;11636;52.086;5.090;2022-12-18T15:34:17;25.27;;;14.95;;
22939;SDS011;11636;52.086;5.090;2022-12-18T15:36:49;25.40;;;14.63;;
22939;SDS011;11636;52.086;5.090;2022-12-18T15:39:23;22.88;;;14.80;;
22939;SDS011;11636;52.086;5.090;2022-12-18T15:41:50;22.85;;;14.45;;
22939;SDS011;11636;52.086;5.090;2022-12-18T15:44:43;29.60;;;17.10;;
22939;SDS011;11636;52.086;5.090;2022-12-18T15:47:21;24.27;;;15.23;;
22939;SDS011;11636;52.086;5.090;2022-12-18T15:49:54;24.67;;;14.20;;
22939;SDS011;11636;52.086;5.090;2022-12-18T15:52:32;23.35;;;15.02;;
22939;SDS011;11636;52.086;5.090;2022-12-18T15:55:16;31.02;;;18.00;;
22939;SDS011;11636;52.086;5.090;2022-12-18T15:58:15;26.63;;;15.70;;
22939;SDS011;11636;52.086;5.090;2022-12-18T16:00:42;26.98;;;17.13;;
22939;SDS011;11636;52.086;5.090;2022-12-18T16:03:15;26.05;;;15.63;;
22939;SDS011;11636;52.086;5.090;2022-12-18T16:05:42;23.30;;;14.77;;
22939;SDS011;11636;52.086;5.090;2022-12-18T16:08:17;25.23;;;15.82;;
22939;SDS011;11636;52.086;5.090;2022-12-18T16:10:44;27.38;;;16.13;;
22939;SDS011;11636;52.086;5.090;2022-12-18T16:13:23;26.63;;;16.35;;
22939;SDS011;11636;52.086;5.090;2022-12-18T16:15:50;28.63;;;17.67;;
22939;SDS011;11636;52.086;5.090;2022-12-18T16:18:24;25.13;;;15.73;;
22939;SDS011;11636;52.086;5.090;2022-12-18T16:20:51;28.40;;;17.23;;
22939;SDS011;11636;52.086;5.090;2022-12-18T16:23:18;28.83;;;17.08;;
22939;SDS011;11636;52.086;5.090;2022-12-18T16:25:51;27.83;;;17.40;;
22939;SDS011;11636;52.086;5.090;2022-12-18T16:28:21;27.10;;;15.85;;
22939;SDS011;11636;52.086;5.090;2022-12-18T16:30:54;28.65;;;17.30;;
22939;SDS011;11636;52.086;5.090;2022-12-18T16:33:21;29.45;;;18.38;;
22939;SDS011;11636;52.086;5.090;2022-12-18T16:35:51;36.22;;;17.60;;
22939;SDS011;11636;52.086;5.090;2022-12-18T16:38:25;31.70;;;18.30;;
22939;SDS011;11636;52.086;5.090;2022-12-18T16:40:52;30.83;;;18.73;;
22939;SDS011;11636;52.086;5.090;2022-12-18T16:43:47;27.30;;;16.52;;
22939;SDS011;11636;52.086;5.090;2022-12-18T16:46:20;34.20;;;19.15;;